createdAt,value
2018-09-21T00:01:29.079Z,20.10
2018-09-21T00:04:02.670Z,20.10
2018-09-21T00:06:30.767Z,20.10
2018-09-21T00:08:58.862Z,20.00
2018-09-21T00:11:26.953Z,20.00
2018-09-21T00:13:55.038Z,20.00
2018-09-21T00:16:23.134Z,19.90
2018-09-21T00:18:51.222Z,19.90
2018-09-21T00:21:19.322Z,19.80
2018-09-21T00:23:47.408Z,19.80
2018-09-21T00:26:15.499Z,19.70
2018-09-21T00:28:43.587Z,19.70
2018-09-21T00:31:11.697Z,19.70
2018-09-21T00:33:39.773Z,19.80
2018-09-21T00:36:07.875Z,19.70
2018-09-21T00:38:35.961Z,19.70
2018-09-21T00:41:04.055Z,19.70
2018-09-21T00:43:32.141Z,19.70
2018-09-21T00:46:00.249Z,19.70
2018-09-21T00:48:28.334Z,19.70
2018-09-21T00:50:56.422Z,19.70
2018-09-21T00:53:24.521Z,19.70
2018-09-21T00:55:52.662Z,19.70
2018-09-21T00:58:20.742Z,19.60
2018-09-21T01:00:48.959Z,19.60
2018-09-21T01:03:17.042Z,19.50
2018-09-21T01:05:45.133Z,19.50
2018-09-21T01:08:13.226Z,19.40
2018-09-21T01:10:41.314Z,19.50
2018-09-21T01:13:09.410Z,19.50
2018-09-21T01:15:37.499Z,19.40
2018-09-21T01:18:05.594Z,19.30
2018-09-21T01:20:33.874Z,19.30
2018-09-21T01:23:01.993Z,19.20
2018-09-21T01:25:30.081Z,19.20
2018-09-21T01:27:58.183Z,19.20
2018-09-21T01:30:26.270Z,19.20
2018-09-21T01:32:54.396Z,19.20
2018-09-21T01:35:22.470Z,19.10
2018-09-21T01:37:50.571Z,19.10
2018-09-21T01:40:18.659Z,19.10
2018-09-21T01:42:46.754Z,19.10
2018-09-21T01:45:14.902Z,19.10
2018-09-21T01:47:43.061Z,19.00
2018-09-21T01:50:11.159Z,19.00
2018-09-21T01:52:39.246Z,19.00
2018-09-21T01:55:07.334Z,18.90
2018-09-21T01:57:35.445Z,18.80
2018-09-21T02:00:03.898Z,18.80
2018-09-21T02:02:31.986Z,18.80
2018-09-21T02:05:00.066Z,18.70
2018-09-21T02:07:28.158Z,18.70
2018-09-21T02:09:56.253Z,18.80
2018-09-21T02:12:24.351Z,18.80
2018-09-21T02:14:52.566Z,18.80
2018-09-21T02:17:20.656Z,18.70
2018-09-21T02:19:49.767Z,18.60
2018-09-21T02:22:17.850Z,18.70
2018-09-21T02:24:45.919Z,18.70
2018-09-21T02:27:14.005Z,18.60
2018-09-21T02:29:42.302Z,18.60
2018-09-21T02:32:10.396Z,18.60
2018-09-21T02:34:38.486Z,18.40
2018-09-21T02:37:06.579Z,18.40
2018-09-21T02:39:34.657Z,18.30
2018-09-21T02:42:02.761Z,18.40
2018-09-21T02:44:30.851Z,18.30
2018-09-21T02:46:58.930Z,18.40
2018-09-21T02:49:27.046Z,18.40
2018-09-21T02:51:55.142Z,18.40
2018-09-21T02:54:23.230Z,18.40
2018-09-21T02:56:51.306Z,18.40
2018-09-21T02:59:19.410Z,18.30
2018-09-21T03:01:47.496Z,18.30
2018-09-21T03:04:15.587Z,18.30
2018-09-21T03:06:43.662Z,18.30
2018-09-21T03:09:11.889Z,18.20
2018-09-21T03:11:39.966Z,18.20
2018-09-21T03:14:08.230Z,18.20
2018-09-21T03:16:36.319Z,18.20
2018-09-21T03:19:04.416Z,18.10
2018-09-21T03:21:32.497Z,18.20
2018-09-21T03:24:00.589Z,18.20
2018-09-21T03:26:28.686Z,18.10
2018-09-21T03:28:56.954Z,18.20
2018-09-21T03:31:25.034Z,18.20
2018-09-21T03:33:53.123Z,18.20
2018-09-21T03:36:21.374Z,18.20
2018-09-21T03:38:49.466Z,18.10
2018-09-21T03:41:17.542Z,18.10
2018-09-21T03:43:45.846Z,18.20
2018-09-21T03:46:13.930Z,18.20
2018-09-21T03:48:42.133Z,18.20
2018-09-21T03:51:10.216Z,18.20
2018-09-21T03:53:38.299Z,18.20
2018-09-21T03:56:06.377Z,18.20
2018-09-21T03:58:34.458Z,18.20
2018-09-21T04:01:02.556Z,18.20
2018-09-21T04:03:30.630Z,18.20
2018-09-21T04:05:58.710Z,18.10
2018-09-21T04:08:26.795Z,18.10
2018-09-21T04:10:54.883Z,18.10
2018-09-21T04:13:22.967Z,18.00
2018-09-21T04:15:51.050Z,18.00
2018-09-21T04:18:19.138Z,18.00
2018-09-21T04:20:47.226Z,18.00
2018-09-21T04:23:15.325Z,18.00
2018-09-21T04:25:43.398Z,18.00
2018-09-21T04:28:11.496Z,18.00
2018-09-21T04:30:39.570Z,18.00
2018-09-21T04:33:08.918Z,18.00
2018-09-21T04:35:37.010Z,18.00
2018-09-21T04:38:05.122Z,18.00
2018-09-21T04:40:33.216Z,18.00
2018-09-21T04:43:01.293Z,18.00
2018-09-21T04:45:29.398Z,18.00
2018-09-21T04:47:57.487Z,18.00
2018-09-21T04:50:25.578Z,18.10
2018-09-21T04:52:53.654Z,18.00
2018-09-21T04:55:21.739Z,18.00
2018-09-21T04:57:49.827Z,18.00
2018-09-21T05:00:17.922Z,18.10
2018-09-21T05:02:45.994Z,18.10
2018-09-21T05:05:14.094Z,18.00
2018-09-21T05:07:42.167Z,18.10
2018-09-21T05:10:10.275Z,18.10
2018-09-21T05:12:38.666Z,18.20
2018-09-21T05:15:07.079Z,18.20
2018-09-21T05:17:35.174Z,18.20
2018-09-21T05:20:03.303Z,18.20
2018-09-21T05:22:31.386Z,18.20
2018-09-21T05:24:59.478Z,18.20
2018-09-21T05:27:27.581Z,18.20
2018-09-21T05:29:55.657Z,18.30
2018-09-21T05:32:23.739Z,18.20
2018-09-21T05:34:51.866Z,18.30
2018-09-21T05:37:19.918Z,18.30
2018-09-21T05:39:48.006Z,18.30
2018-09-21T05:42:16.090Z,18.30
2018-09-21T05:44:44.182Z,18.30
2018-09-21T05:47:12.267Z,18.30
2018-09-21T05:49:40.362Z,18.30
2018-09-21T05:52:08.734Z,18.30
2018-09-21T05:54:36.830Z,18.30
2018-09-21T05:57:04.918Z,18.30
2018-09-21T05:59:33.014Z,18.40
2018-09-21T06:02:01.131Z,18.40
2018-09-21T06:04:29.210Z,18.40
2018-09-21T06:06:56.627Z,18.50
2018-09-21T06:09:24.730Z,18.50
2018-09-21T06:11:53.622Z,18.60
2018-09-21T06:14:21.713Z,18.70
2018-09-21T06:16:49.803Z,18.80
2018-09-21T06:19:17.283Z,18.80
2018-09-21T06:21:44.630Z,18.90
2018-09-21T06:24:12.053Z,18.90
2018-09-21T06:26:39.473Z,19.00
2018-09-21T06:29:06.898Z,19.00
2018-09-21T06:31:34.986Z,19.10
2018-09-21T06:34:03.087Z,19.20
2018-09-21T06:36:31.167Z,19.20
2018-09-21T06:38:59.263Z,19.30
2018-09-21T06:41:27.351Z,19.40
2018-09-21T06:43:55.443Z,19.40
2018-09-21T06:46:23.538Z,19.50
2018-09-21T06:48:51.618Z,19.60
2018-09-21T06:51:19.716Z,19.70
2018-09-21T06:53:47.791Z,19.70
2018-09-21T06:56:15.882Z,19.80
2018-09-21T06:58:43.958Z,19.90
2018-09-21T07:01:12.058Z,19.90
2018-09-21T07:03:40.142Z,20.00
2018-09-21T07:06:08.410Z,20.10
2018-09-21T07:08:36.499Z,20.10
2018-09-21T07:11:04.594Z,20.10
2018-09-21T07:13:32.714Z,20.20
2018-09-21T07:16:00.850Z,20.20
2018-09-21T07:18:28.910Z,20.30
2018-09-21T07:20:57.014Z,20.30
2018-09-21T07:23:25.098Z,20.40
2018-09-21T07:25:53.183Z,20.50
2018-09-21T07:28:21.266Z,20.60
2018-09-21T07:30:49.404Z,20.60
2018-09-21T07:33:17.442Z,20.70
2018-09-21T07:35:45.550Z,20.80
2018-09-21T07:38:13.630Z,20.80
2018-09-21T07:40:41.715Z,20.90
2018-09-21T07:43:10.064Z,21.00
2018-09-21T07:45:38.153Z,21.20
2018-09-21T07:48:06.238Z,21.20
2018-09-21T07:50:34.316Z,21.40
2018-09-21T07:53:02.405Z,21.50
2018-09-21T07:55:30.714Z,21.60
2018-09-21T07:57:58.797Z,21.70
2018-09-21T08:00:26.882Z,21.90
2018-09-21T08:02:54.954Z,22.30
2018-09-21T08:05:27.561Z,22.80
2018-09-21T08:07:55.890Z,23.20
2018-09-21T08:10:23.986Z,23.50
2018-09-21T08:12:52.084Z,23.70
2018-09-21T08:15:20.272Z,23.90
2018-09-21T08:17:48.350Z,24.00
2018-09-21T08:20:16.455Z,24.10
2018-09-21T08:22:44.539Z,24.10
2018-09-21T08:25:12.647Z,24.20
2018-09-21T08:27:40.766Z,24.30
2018-09-21T08:30:08.858Z,24.40
2018-09-21T08:32:36.935Z,24.50
2018-09-21T08:35:05.035Z,24.60
2018-09-21T08:37:33.106Z,24.70
2018-09-21T08:40:01.187Z,24.80
2018-09-21T08:42:29.282Z,24.80
2018-09-21T08:44:57.374Z,24.80
2018-09-21T08:47:25.454Z,24.70
2018-09-21T08:49:53.734Z,24.80
2018-09-21T08:52:21.835Z,24.70
2018-09-21T08:54:50.258Z,24.60
2018-09-21T08:57:18.365Z,24.70
2018-09-21T08:59:46.446Z,24.70
2018-09-21T09:02:14.907Z,24.70
2018-09-21T09:04:42.982Z,24.70
2018-09-21T09:07:11.094Z,24.70
2018-09-21T09:09:39.166Z,24.70
2018-09-21T09:12:07.259Z,24.70
2018-09-21T09:14:35.348Z,24.80
2018-09-21T09:17:03.425Z,24.90
2018-09-21T09:19:31.513Z,25.00
2018-09-21T09:21:59.616Z,25.00
2018-09-21T09:24:27.704Z,25.00
2018-09-21T09:26:55.770Z,24.90
2018-09-21T09:29:23.858Z,24.90
2018-09-21T09:31:51.951Z,24.90
2018-09-21T09:34:20.028Z,24.80
2018-09-21T09:36:48.158Z,24.80
2018-09-21T09:39:16.186Z,24.70
2018-09-21T09:41:44.269Z,24.80
2018-09-21T09:44:12.347Z,24.80
2018-09-21T09:46:40.438Z,24.90
2018-09-21T09:49:08.562Z,24.90
2018-09-21T09:51:36.614Z,24.90
2018-09-21T09:54:04.766Z,25.00
2018-09-21T09:56:32.846Z,24.90
2018-09-21T09:59:01.111Z,25.00
2018-09-21T10:01:29.203Z,24.90
2018-09-21T10:03:57.317Z,24.90
2018-09-21T10:06:25.379Z,24.90
2018-09-21T10:08:53.446Z,24.90
2018-09-21T10:11:21.550Z,24.90
2018-09-21T10:13:49.644Z,24.90
2018-09-21T10:16:17.755Z,24.80
2018-09-21T10:18:45.834Z,24.80
2018-09-21T10:21:13.919Z,24.80
2018-09-21T10:23:42.338Z,24.70
2018-09-21T10:26:10.418Z,24.70
2018-09-21T10:28:38.646Z,24.70
2018-09-21T10:31:06.612Z,24.70
2018-09-21T10:33:34.717Z,24.70
2018-09-21T10:36:02.788Z,24.70
2018-09-21T10:38:30.874Z,24.70
2018-09-21T10:40:58.965Z,24.60
2018-09-21T10:43:27.055Z,24.60
2018-09-21T10:45:55.154Z,24.60
2018-09-21T10:48:23.231Z,24.70
2018-09-21T10:50:51.594Z,24.70
2018-09-21T10:53:19.670Z,24.70
2018-09-21T10:55:47.754Z,24.70
2018-09-21T10:58:15.850Z,24.70
2018-09-21T11:00:43.943Z,24.70
2018-09-21T11:03:12.023Z,24.70
2018-09-21T11:05:40.116Z,24.80
2018-09-21T11:08:08.208Z,24.80
2018-09-21T11:10:36.288Z,24.80
2018-09-21T11:13:04.441Z,24.90
2018-09-21T11:15:32.474Z,24.90
2018-09-21T11:18:00.574Z,24.90
2018-09-21T11:20:28.850Z,24.90
2018-09-21T11:22:56.937Z,24.90
2018-09-21T11:25:25.015Z,24.90
2018-09-21T11:27:53.090Z,24.90
2018-09-21T11:30:21.162Z,24.80
2018-09-21T11:32:49.246Z,24.80
2018-09-21T11:35:17.402Z,24.80
2018-09-21T11:37:45.543Z,24.80
2018-09-21T11:40:13.650Z,24.70
2018-09-21T11:42:41.754Z,24.70
2018-09-21T11:45:09.830Z,24.70
2018-09-21T11:47:37.966Z,24.70
2018-09-21T11:50:06.014Z,24.70
2018-09-21T11:52:34.106Z,24.70
2018-09-21T11:55:02.191Z,24.80
2018-09-21T11:57:30.262Z,24.80
2018-09-21T11:59:58.337Z,24.80
2018-09-21T12:02:26.418Z,24.80
2018-09-21T12:04:54.539Z,24.70
2018-09-21T12:07:22.606Z,24.70
2018-09-21T12:09:50.690Z,24.70
2018-09-21T12:12:18.771Z,24.70
2018-09-21T12:14:46.854Z,24.70
2018-09-21T12:17:14.939Z,24.60
2018-09-21T12:19:43.019Z,24.60
2018-09-21T12:22:11.223Z,24.60
2018-09-21T12:24:39.198Z,24.50
2018-09-21T12:27:07.302Z,24.40
2018-09-21T12:29:35.378Z,24.40
2018-09-21T12:32:03.463Z,24.40
2018-09-21T12:34:31.546Z,24.40
2018-09-21T12:36:59.642Z,24.40
2018-09-21T12:39:27.737Z,24.40
2018-09-21T12:41:55.834Z,24.30
2018-09-21T12:44:23.943Z,24.30
2018-09-21T12:46:51.983Z,24.30
2018-09-21T12:49:20.087Z,24.30
2018-09-21T12:51:48.188Z,24.20
2018-09-21T12:54:16.278Z,24.10
2018-09-21T12:56:44.366Z,24.10
2018-09-21T12:59:12.438Z,24.10
2018-09-21T13:01:40.516Z,24.10
2018-09-21T13:04:08.615Z,24.00
2018-09-21T13:06:36.695Z,23.90
2018-09-21T13:09:06.486Z,23.90
2018-09-21T13:11:34.566Z,23.80
2018-09-21T13:14:02.652Z,23.90
2018-09-21T13:16:30.856Z,23.90
2018-09-21T13:18:58.946Z,23.90
2018-09-21T13:21:27.018Z,23.90
2018-09-21T13:23:55.110Z,23.80
2018-09-21T13:26:23.194Z,23.70
2018-09-21T13:28:51.282Z,23.60
2018-09-21T13:31:19.495Z,23.50
2018-09-21T13:33:47.574Z,23.40
2018-09-21T13:36:15.667Z,23.20
2018-09-21T13:38:43.754Z,23.20
2018-09-21T13:41:11.835Z,23.20
2018-09-21T13:43:39.956Z,23.10
2018-09-21T13:46:08.036Z,23.10
2018-09-21T13:48:36.128Z,22.70
2018-09-21T13:51:04.210Z,22.00
2018-09-21T13:53:32.298Z,21.50
2018-09-21T13:56:00.382Z,21.10
2018-09-21T13:58:28.486Z,20.80
2018-09-21T14:00:56.574Z,20.40
2018-09-21T14:03:24.666Z,20.10
2018-09-21T14:05:52.744Z,19.80
2018-09-21T14:08:20.854Z,19.60
2018-09-21T14:10:48.933Z,19.50
2018-09-21T14:13:17.031Z,19.50
2018-09-21T14:15:45.126Z,19.40
2018-09-21T14:18:13.216Z,19.30
2018-09-21T14:20:41.298Z,19.20
2018-09-21T14:23:09.372Z,19.00
2018-09-21T14:25:37.446Z,18.80
2018-09-21T14:28:05.561Z,18.50
2018-09-21T14:30:33.639Z,18.30
2018-09-21T14:33:01.715Z,18.10
2018-09-21T14:35:29.814Z,17.90
2018-09-21T14:37:57.880Z,17.70
2018-09-21T14:40:25.946Z,17.50
2018-09-21T14:42:54.038Z,17.40
2018-09-21T14:45:21.453Z,17.20
2018-09-21T14:47:48.897Z,17.00
2018-09-21T14:50:16.294Z,17.00
2018-09-21T14:52:43.713Z,16.90
2018-09-21T14:55:11.129Z,16.90
2018-09-21T14:57:39.214Z,16.90
2018-09-21T15:00:07.382Z,16.90
2018-09-21T15:02:35.466Z,16.80
2018-09-21T15:05:03.546Z,16.90
2018-09-21T15:07:31.618Z,16.90
2018-09-21T15:09:59.041Z,16.80
2018-09-21T15:12:26.465Z,16.90
2018-09-21T15:14:54.558Z,16.90
2018-09-21T15:17:22.632Z,16.90
2018-09-21T15:19:50.903Z,16.90
2018-09-21T15:22:19.203Z,16.90
2018-09-21T15:24:47.148Z,16.90
2018-09-21T15:27:15.413Z,17.00
2018-09-21T15:29:43.494Z,17.20
2018-09-21T15:32:11.570Z,17.10
2018-09-21T15:34:39.662Z,17.20
2018-09-21T15:37:07.739Z,17.10
2018-09-21T15:39:35.154Z,17.20
2018-09-21T15:42:02.683Z,17.20
2018-09-21T15:44:30.105Z,17.30
2018-09-21T15:46:57.509Z,17.20
2018-09-21T15:49:24.952Z,17.30
2018-09-21T15:51:52.371Z,17.40
2018-09-21T15:54:19.980Z,17.50
2018-09-21T15:56:47.382Z,17.60
2018-09-21T15:59:15.475Z,17.60
2018-09-21T16:01:43.546Z,17.60
2018-09-21T16:04:11.630Z,17.50
2018-09-21T16:06:39.046Z,17.50
2018-09-21T16:09:07.334Z,17.60
2018-09-21T16:11:36.178Z,17.80
2018-09-21T16:14:04.357Z,17.80
2018-09-21T16:16:32.441Z,17.80
2018-09-21T16:19:00.814Z,17.90
2018-09-21T16:21:28.885Z,17.80
2018-09-21T16:23:56.980Z,17.80
2018-09-21T16:26:25.056Z,17.60
2018-09-21T16:28:53.167Z,17.60
2018-09-21T16:31:20.845Z,17.60
2018-09-21T16:33:48.689Z,17.60
2018-09-21T16:36:16.092Z,17.60
2018-09-21T16:38:43.542Z,17.40
2018-09-21T16:41:11.618Z,17.40
2018-09-21T16:43:39.707Z,17.30
2018-09-21T16:46:07.782Z,17.20
2018-09-21T16:48:35.205Z,17.20
2018-09-21T16:51:02.645Z,17.20
2018-09-21T16:53:30.158Z,17.10
2018-09-21T16:55:57.558Z,17.10
2018-09-21T16:58:24.974Z,17.10
2018-09-21T17:00:52.397Z,17.00
2018-09-21T17:03:20.337Z,17.00
2018-09-21T17:05:47.701Z,16.90
2018-09-21T17:08:15.110Z,16.90
2018-09-21T17:10:43.198Z,16.80
2018-09-21T17:13:10.609Z,16.80
2018-09-21T17:15:38.289Z,16.70
2018-09-21T17:18:05.701Z,16.70
2018-09-21T17:20:33.116Z,16.60
2018-09-21T17:23:00.539Z,16.50
2018-09-21T17:25:27.987Z,16.50
2018-09-21T17:27:56.222Z,16.50
2018-09-21T17:30:24.302Z,16.50
2018-09-21T17:32:52.375Z,16.40
2018-09-21T17:35:20.466Z,16.40
2018-09-21T17:37:48.582Z,16.40
2018-09-21T17:40:15.950Z,16.40
2018-09-21T17:42:44.026Z,16.40
2018-09-21T17:45:11.441Z,16.40
2018-09-21T17:47:38.860Z,16.40
2018-09-21T17:50:06.317Z,16.40
2018-09-21T17:52:33.765Z,16.40
2018-09-21T17:55:01.162Z,16.40
2018-09-21T17:57:29.242Z,16.40
2018-09-21T17:59:56.667Z,16.40
2018-09-21T18:02:24.082Z,16.40
2018-09-21T18:04:51.501Z,16.40
2018-09-21T18:07:19.694Z,16.40
2018-09-21T18:09:48.727Z,16.40
2018-09-21T18:12:16.798Z,16.40
2018-09-21T18:14:45.170Z,16.40
2018-09-21T18:17:13.280Z,16.40
2018-09-21T18:19:41.742Z,16.40
2018-09-21T18:22:10.411Z,16.40
2018-09-21T18:24:38.498Z,16.40
2018-09-21T18:27:06.075Z,16.30
2018-09-21T18:29:33.493Z,16.40
2018-09-21T18:32:00.926Z,16.40
2018-09-21T18:34:28.346Z,16.40
2018-09-21T18:36:56.454Z,16.40
2018-09-21T18:39:24.579Z,16.40
2018-09-21T18:41:52.616Z,16.40
2018-09-21T18:44:20.711Z,16.40
2018-09-21T18:46:48.957Z,16.40
2018-09-21T18:49:17.054Z,16.40
2018-09-21T18:51:45.147Z,16.50
2018-09-21T18:54:13.581Z,16.40
2018-09-21T18:56:41.682Z,16.40
2018-09-21T18:59:10.122Z,16.30
2018-09-21T19:01:38.379Z,16.30
2018-09-21T19:04:06.503Z,16.30
2018-09-21T19:06:34.559Z,16.30
2018-09-21T19:09:02.669Z,16.30
2018-09-21T19:11:30.755Z,16.20
2018-09-21T19:13:58.843Z,16.20
2018-09-21T19:16:26.955Z,16.10
2018-09-21T19:18:55.611Z,16.10
2018-09-21T19:21:23.686Z,16.10
2018-09-21T19:23:51.771Z,16.10
2018-09-21T19:26:19.862Z,16.00
2018-09-21T19:28:47.938Z,16.00
2018-09-21T19:31:16.018Z,16.00
2018-09-21T19:33:44.110Z,16.10
2018-09-21T19:36:12.325Z,16.10
2018-09-21T19:38:40.450Z,16.10
2018-09-21T19:41:08.500Z,16.10
2018-09-21T19:43:36.582Z,15.90
2018-09-21T19:46:04.670Z,16.00
2018-09-21T19:48:32.749Z,16.00
2018-09-21T19:51:01.026Z,16.00
2018-09-21T19:53:29.111Z,15.90
2018-09-21T19:55:57.194Z,15.90
2018-09-21T19:58:25.272Z,15.80
2018-09-21T20:00:53.358Z,15.80
2018-09-21T20:03:21.906Z,15.80
2018-09-21T20:05:50.006Z,15.80
2018-09-21T20:08:18.082Z,15.80
2018-09-21T20:10:46.178Z,15.80
2018-09-21T20:13:14.258Z,15.70
2018-09-21T20:15:42.352Z,15.80
2018-09-21T20:18:10.435Z,15.80
2018-09-21T20:20:38.515Z,15.80
2018-09-21T20:23:06.586Z,15.80
2018-09-21T20:25:34.670Z,15.80
2018-09-21T20:28:02.750Z,15.80
2018-09-21T20:30:36.333Z,15.80
2018-09-21T20:33:09.758Z,15.80
2018-09-21T20:35:37.915Z,15.80
2018-09-21T20:38:05.937Z,15.80
2018-09-21T20:40:34.018Z,15.80
2018-09-21T20:43:02.090Z,15.80
2018-09-21T20:45:30.176Z,15.80
2018-09-21T20:47:58.257Z,15.80
2018-09-21T20:50:26.362Z,15.70
2018-09-21T20:52:54.480Z,15.70
2018-09-21T20:55:22.552Z,15.70
2018-09-21T20:57:50.638Z,15.70
2018-09-21T21:00:18.734Z,15.70
2018-09-21T21:02:46.983Z,15.70
2018-09-21T21:05:15.130Z,15.70
2018-09-21T21:07:43.198Z,15.70
2018-09-21T21:10:11.279Z,15.70
2018-09-21T21:12:39.357Z,15.70
2018-09-21T21:15:07.530Z,15.70
2018-09-21T21:17:35.606Z,15.70
2018-09-21T21:20:03.714Z,15.70
2018-09-21T21:22:31.793Z,15.70
2018-09-21T21:25:00.118Z,15.60
2018-09-21T21:27:28.228Z,15.60
2018-09-21T21:29:56.301Z,15.70
2018-09-21T21:32:24.397Z,15.70
2018-09-21T21:34:52.470Z,15.70
2018-09-21T21:37:20.570Z,15.70
2018-09-21T21:39:48.639Z,15.70
2018-09-21T21:42:16.722Z,15.60
2018-09-21T21:44:44.806Z,15.60
2018-09-21T21:47:12.895Z,15.70
2018-09-21T21:49:40.966Z,15.70
2018-09-21T21:52:09.050Z,15.70
2018-09-21T21:54:37.143Z,15.60
2018-09-21T21:57:05.482Z,15.60
2018-09-21T21:59:33.558Z,15.60
2018-09-21T22:02:01.655Z,15.60
2018-09-21T22:04:29.726Z,15.60
2018-09-21T22:06:57.845Z,15.50
2018-09-21T22:09:25.927Z,15.40
2018-09-21T22:11:59.350Z,15.50
2018-09-21T22:14:27.434Z,15.40
2018-09-21T22:16:55.520Z,15.50
2018-09-21T22:19:23.594Z,15.40
2018-09-21T22:21:51.674Z,15.40
2018-09-21T22:24:19.742Z,15.40
2018-09-21T22:26:47.826Z,15.40
2018-09-21T22:29:15.899Z,15.30
2018-09-21T22:31:43.989Z,15.30
2018-09-21T22:34:12.071Z,15.30
2018-09-21T22:36:40.146Z,15.40
2018-09-21T22:39:08.689Z,15.40
2018-09-21T22:41:37.043Z,15.40
2018-09-21T22:44:05.090Z,15.30
2018-09-21T22:46:33.162Z,15.30
2018-09-21T22:49:02.310Z,15.30
2018-09-21T22:51:30.389Z,15.30
2018-09-21T22:53:58.494Z,15.20
2018-09-21T22:56:26.566Z,15.20
2018-09-21T22:58:54.642Z,15.20
2018-09-21T23:01:22.726Z,15.20
2018-09-21T23:03:50.805Z,15.10
2018-09-21T23:06:18.889Z,15.10
2018-09-21T23:08:46.970Z,15.10
2018-09-21T23:11:15.059Z,15.00
2018-09-21T23:13:43.138Z,15.00
2018-09-21T23:16:11.226Z,15.00
2018-09-21T23:18:39.310Z,15.00
2018-09-21T23:21:07.574Z,14.90
2018-09-21T23:23:35.658Z,14.90
2018-09-21T23:26:03.744Z,14.80
2018-09-21T23:28:31.829Z,14.80
2018-09-21T23:30:59.992Z,14.70
2018-09-21T23:33:28.074Z,14.60
2018-09-21T23:35:56.154Z,14.60
2018-09-21T23:38:24.245Z,14.60
2018-09-21T23:40:52.311Z,14.60
2018-09-21T23:43:20.382Z,14.60
2018-09-21T23:45:48.499Z,14.60
2018-09-21T23:48:16.578Z,14.70
2018-09-21T23:50:44.652Z,14.60
2018-09-21T23:53:12.730Z,14.60
2018-09-21T23:55:40.813Z,14.60
2018-09-21T23:58:08.996Z,14.60
